Time;durP1;ratioP1;P1;durP2;ratioP2;P2;SDS_P1;SDS_P2;PMS_P1;PMS_P2;Temp;Humidity;BMP_temperature;BMP_pressure;BME280_temperature;BME280_humidity;BME280_pressure;Samples;Min_cycle;Max_cycle;Signal;HPM_P1;HPM_P2
2023/10/08 00:00:55;;;;;;;5.25;2.40;;;;;;;19.26;36.51;99832.19;7678725;32;40173;-83
2023/10/08 00:05:16;;;;;;;6.57;2.25;;;;;;;19.40;36.49;99822.88;7685084;32;37688;-82
2023/10/08 00:09:35;;;;;;;8.98;2.58;;;;;;;19.08;37.81;99816.81;7662498;32;37312;-82
2023/10/08 00:13:56;;;;;;;6.07;2.60;;;;;;;19.11;37.89;99802.34;7658615;32;39995;-82
2023/10/08 00:18:15;;;;;;;6.03;2.17;;;;;;;18.77;36.92;99810.31;7659206;32;39923;-82
2023/10/08 00:22:35;;;;;;;9.65;2.80;;;;;;;19.07;36.08;99802.16;7658511;32;38016;-82
2023/10/08 00:26:54;;;;;;;18.33;3.03;;;;;;;18.76;36.48;99805.94;7658556;32;37718;-82
2023/10/08 00:31:13;;;;;;;9.05;3.30;;;;;;;18.75;36.20;99793.25;7658548;32;38237;-83
2023/10/08 00:35:30;;;;;;;8.82;3.05;;;;;;;19.03;35.79;99784.62;7658256;32;40690;-82
2023/10/08 00:39:46;;;;;;;7.60;2.58;;;;;;;18.93;35.89;99777.50;7658429;32;38723;-82
2023/10/08 00:44:07;;;;;;;7.25;2.50;;;;;;;19.04;35.72;99769.69;7658306;32;37907;-81
2023/10/08 00:48:28;;;;;;;8.32;2.53;;;;;;;19.22;35.45;99772.41;7658360;32;40504;-82
2023/10/08 00:52:57;;;;;;;8.00;3.00;;;;;;;19.57;34.94;99794.38;7658472;32;39879;-82
2023/10/08 00:57:20;;;;;;;11.32;2.92;;;;;;;19.31;35.62;99785.03;7657985;32;37930;-82
2023/10/08 01:01:38;;;;;;;8.70;2.90;;;;;;;19.58;34.82;99777.44;7656926;32;37931;-82
2023/10/08 01:05:57;;;;;;;9.63;3.03;;;;;;;19.18;35.55;99766.72;7658050;32;40169;-83
2023/10/08 01:10:13;;;;;;;11.82;3.20;;;;;;;19.35;35.33;99768.62;7657929;32;38809;-83
2023/10/08 01:14:32;;;;;;;5.12;2.37;;;;;;;19.51;35.27;99758.59;7657644;32;38104;-82
2023/10/08 01:18:54;;;;;;;6.95;2.70;;;;;;;19.41;35.74;99749.87;7657829;32;37381;-82
2023/10/08 01:23:20;;;;;;;8.48;2.80;;;;;;;19.46;36.12;99769.84;7656875;32;40366;-82
2023/10/08 01:27:37;;;;;;;9.00;2.80;;;;;;;19.71;35.37;99747.94;7657551;32;39898;-82
2023/10/08 01:31:55;;;;;;;9.07;3.10;;;;;;;18.86;36.95;99748.75;7657358;32;38391;-79
2023/10/08 01:36:12;;;;;;;7.18;2.37;;;;;;;18.76;37.25;99738.84;7657259;32;37703;-81
2023/10/08 01:40:30;;;;;;;7.68;3.00;;;;;;;18.69;37.31;99725.53;7675486;32;39414;-81
2023/10/08 01:44:55;;;;;;;8.95;2.70;;;;;;;19.02;36.81;99733.28;7683426;32;39901;-83
2023/10/08 01:49:15;;;;;;;7.37;2.67;;;;;;;19.19;36.52;99731.59;7683338;32;38048;-83
2023/10/08 01:53:31;;;;;;;7.05;2.53;;;;;;;19.37;36.43;99727.63;7683343;32;37061;-82
2023/10/08 01:57:49;;;;;;;7.82;2.83;;;;;;;19.09;36.93;99732.75;7683202;32;39171;-82
2023/10/08 02:02:06;;;;;;;8.27;2.75;;;;;;;18.78;37.63;99728.25;7682707;32;39894;-83
2023/10/08 02:06:23;;;;;;;9.85;2.75;;;;;;;18.72;37.81;99724.88;7682929;32;38133;-82
2023/10/08 02:10:42;;;;;;;13.10;2.78;;;;;;;18.56;38.01;99726.53;7682951;32;37606;-82
2023/10/08 02:15:01;;;;;;;7.28;2.90;;;;;;;18.75;37.87;99729.75;7682853;32;40237;-83
2023/10/08 02:19:26;;;;;;;8.07;2.65;;;;;;;18.51;37.98;99723.94;7682636;32;41006;-83
2023/10/08 02:23:43;;;;;;;8.93;2.95;;;;;;;18.53;38.08;99718.91;7682521;32;38644;-82
2023/10/08 02:28:02;;;;;;;14.25;3.12;;;;;;;18.61;38.17;99723.62;7682632;32;38001;-82
2023/10/08 02:32:21;;;;;;;7.37;2.60;;;;;;;18.61;38.16;99720.00;7657000;32;39385;-82
2023/10/08 02:36:40;;;;;;;6.30;2.42;;;;;;;18.88;37.42;99727.16;7659705;32;40882;-82
2023/10/08 02:40:59;;;;;;;5.60;2.40;;;;;;;19.17;37.19;99720.06;7660376;32;38711;-81
2023/10/08 02:45:16;;;;;;;6.97;2.65;;;;;;;19.42;36.65;99708.09;7659667;32;37754;-81
2023/10/08 02:49:34;;;;;;;6.53;2.83;;;;;;;19.48;36.73;99701.22;7659269;32;39336;-81
2023/10/08 02:53:51;;;;;;;10.15;2.45;;;;;;;19.52;37.06;99699.41;7659680;32;40603;-81
2023/10/08 02:58:14;;;;;;;10.93;2.80;;;;;;;19.21;38.11;99691.44;7659361;32;38702;-81
2023/10/08 03:02:31;;;;;;;10.20;2.95;;;;;;;18.96;38.42;99701.44;7659486;32;37899;-82
2023/10/08 03:06:49;;;;;;;6.65;2.75;;;;;;;18.73;38.76;99693.38;7659380;32;40021;-82
2023/10/08 03:11:06;;;;;;;11.63;2.90;;;;;;;19.12;38.05;99694.22;7868063;27;39706;-75
2023/10/08 03:15:29;;;;;;;9.70;3.15;;;;;;;18.98;38.47;99699.16;7611628;32;36715;-82
2023/10/08 03:19:46;;;;;;;10.98;2.60;;;;;;;19.24;37.78;99684.44;7607062;32;37917;-81
2023/10/08 03:24:11;;;;;;;7.65;2.72;;;;;;;19.44;37.27;99694.75;7606951;32;39513;-82
2023/10/08 03:28:29;;;;;;;7.68;2.80;;;;;;;19.10;37.79;99679.94;7606987;32;40231;-81
2023/10/08 03:32:50;;;;;;;10.25;2.62;;;;;;;19.17;37.73;99660.09;7606841;32;37786;-83
2023/10/08 03:37:07;;;;;;;8.43;2.58;;;;;;;19.52;37.15;99657.94;7606831;32;37218;-82
2023/10/08 03:41:30;;;;;;;7.87;2.40;;;;;;;19.44;37.19;99661.56;7606853;32;39429;-82
2023/10/08 03:46:14;;;;;;;6.55;2.65;;;;;;;19.79;36.60;99655.03;7606192;32;40100;-82
2023/10/08 03:50:41;;;;;;;8.52;2.90;;;;;;;19.47;37.28;99671.97;7606559;32;38874;-81
2023/10/08 03:59:33;;;;;;;9.35;2.40;;;;;;;19.75;37.02;99659.59;7621639;32;40116;-82
2023/10/08 04:08:42;;;;;;;7.78;2.40;;;;;;;19.98;37.50;99657.31;7632513;32;38681;-82
2023/10/08 04:12:58;;;;;;;7.75;2.33;;;;;;;20.00;36.76;99650.28;7612733;32;37134;-82
2023/10/08 04:17:22;;;;;;;7.53;2.85;;;;;;;19.20;38.65;99636.53;7606298;32;39422;-82
2023/10/08 04:21:42;;;;;;;9.95;2.70;;;;;;;19.24;37.91;99646.53;7606294;32;40788;-82
2023/10/08 04:25:59;;;;;;;8.13;2.65;;;;;;;19.46;37.88;99653.75;7606281;32;38763;-80
2023/10/08 04:30:16;;;;;;;7.70;2.17;;;;;;;19.00;38.88;99652.69;7606272;32;37050;-81
2023/10/08 04:34:33;;;;;;;4.70;2.12;;;;;;;19.10;38.94;99641.25;7606129;32;39361;-82
2023/10/08 04:38:54;;;;;;;11.30;3.00;;;;;;;19.05;39.06;99624.06;7606499;32;40572;-81
2023/10/08 04:43:10;;;;;;;10.25;2.50;;;;;;;19.42;37.90;99638.97;7624578;32;38580;-82
2023/10/08 04:47:32;;;;;;;8.65;2.60;;;;;;;19.37;37.87;99636.41;7632046;32;37974;-81
2023/10/08 04:51:51;;;;;;;9.32;3.00;;;;;;;19.37;38.00;99630.06;7632078;32;40284;-82
2023/10/08 04:56:18;;;;;;;6.97;2.60;;;;;;;19.63;37.21;99630.69;7630745;32;39898;-81
2023/10/08 05:00:43;;;;;;;6.65;2.65;;;;;;;19.41;37.87;99640.13;7613623;32;38102;-83
2023/10/08 05:05:21;;;;;;;12.45;2.70;;;;;;;19.56;37.55;99630.44;7604650;32;36928;-82
2023/10/08 05:09:47;;;;;;;6.55;2.40;;;;;;;19.22;37.68;99634.22;7614759;32;39347;-81
2023/10/08 05:14:16;;;;;;;5.20;2.30;;;;;;;19.44;37.45;99644.19;7605473;32;40887;-82
2023/10/08 05:19:07;;;;;;;9.25;2.60;;;;;;;19.47;37.90;99615.84;7605330;32;37914;-83
2023/10/08 05:37:11;;;;;;;8.30;2.85;;;;;;;19.79;37.08;99600.50;7603862;32;38693;-82
2023/10/08 05:41:51;;;;;;;7.82;2.53;;;;;;;19.38;37.99;99606.81;7614704;32;37156;-82
2023/10/08 05:51:13;;;;;;;9.23;3.37;;;;;;;19.32;38.80;99617.25;7630787;32;40777;-82
2023/10/08 05:55:34;;;;;;;9.23;2.53;;;;;;;18.98;39.43;99618.25;7604830;32;37905;-82
2023/10/08 06:08:52;;;;;;;12.20;2.60;;;;;;;19.32;39.03;99620.03;7605757;32;40797;-82
2023/10/08 06:13:15;;;;;;;4.68;2.15;;;;;;;19.25;39.21;99631.59;7631496;32;37921;-82
2023/10/08 06:17:55;;;;;;;10.52;2.80;;;;;;;19.14;40.16;99633.94;7634153;32;37834;-82
2023/10/08 06:22:14;;;;;;;8.30;2.92;;;;;;;19.19;40.01;99640.41;7633805;32;40289;-81
2023/10/08 06:26:34;;;;;;;9.68;2.58;;;;;;;19.10;40.91;99645.97;7633716;32;39980;-82
2023/10/08 06:30:53;;;;;;;8.65;2.75;;;;;;;18.69;42.27;99659.25;7633645;32;38850;-82
2023/10/08 06:35:17;;;;;;;8.32;3.20;;;;;;;19.07;40.69;99664.00;7633697;32;36755;-80
2023/10/08 06:39:39;;;;;;;10.25;2.50;;;;;;;19.29;40.54;99665.72;7623241;32;372405;-80
2023/10/08 06:44:14;;;;;;;6.45;2.42;;;;;;;19.08;40.74;99664.84;7633472;32;40792;-67
2023/10/08 06:48:31;;;;;;;11.07;2.97;;;;;;;19.07;40.90;99669.53;7611878;32;38720;-65
2023/10/08 06:52:49;;;;;;;12.55;2.90;;;;;;;19.38;40.51;99668.41;7611339;32;37932;-83
2023/10/08 06:57:13;;;;;;;7.55;2.50;;;;;;;19.44;40.77;99677.34;7633225;32;40210;-81
2023/10/08 07:01:38;;;;;;;13.88;3.10;;;;;;;19.74;40.85;99669.03;7633264;32;39921;-82
2023/10/08 07:05:58;;;;;;;6.50;2.90;;;;;;;20.02;40.58;99656.31;7633111;32;38765;-81
2023/10/08 07:10:19;;;;;;;6.35;2.33;;;;;;;20.30;40.44;99641.88;7632602;32;37069;-84
2023/10/08 07:14:36;;;;;;;7.32;2.80;;;;;;;20.01;41.42;99651.91;7622696;32;39909;-80
2023/10/08 07:18:52;;;;;;;13.50;2.87;;;;;;;20.19;41.49;99655.31;7606377;32;41063;-81
2023/10/08 07:23:18;;;;;;;8.60;2.58;;;;;;;20.26;40.67;99663.09;7615277;32;38674;-83
2023/10/08 07:27:37;;;;;;;12.25;2.60;;;;;;;19.82;42.09;99660.69;7615353;32;37888;-74
2023/10/08 07:31:53;;;;;;;6.68;2.78;;;;;;;20.18;41.85;99666.72;7623162;32;39983;-78
2023/10/08 07:36:14;;;;;;;14.95;3.17;;;;;;;20.17;42.70;99657.63;7628000;32;39807;-68
2023/10/08 07:40:30;;;;;;;7.45;2.58;;;;;;;20.04;42.51;99662.31;7606693;32;38055;-68
2023/10/08 07:44:47;;;;;;;8.65;2.65;;;;;;;20.45;42.17;99660.63;7612469;32;37894;-84
2023/10/08 07:49:04;;;;;;;8.85;2.87;;;;;;;20.74;41.68;99644.22;7616776;32;40025;-83
2023/10/08 07:53:21;;;;;;;7.55;2.58;;;;;;;21.07;41.00;99618.38;7622143;32;40037;-85
2023/10/08 07:57:37;;;;;;;15.43;2.97;;;;;;;21.46;40.97;99633.53;7632457;32;38485;-83
2023/10/08 08:01:55;;;;;;;10.75;3.35;;;;;;;21.83;40.06;99650.06;7632456;32;36818;-84
2023/10/08 08:06:11;;;;;;;10.95;3.15;;;;;;;22.16;39.62;99640.69;7632495;32;40145;-83
2023/10/08 08:10:29;;;;;;;8.30;2.45;;;;;;;21.83;40.56;99649.28;7628490;32;39563;-83
2023/10/08 08:14:45;;;;;;;11.95;3.22;;;;;;;21.85;40.90;99652.50;7610787;32;37971;-83
2023/10/08 08:19:03;;;;;;;6.72;2.90;;;;;;;21.64;41.27;99650.69;7632012;32;37904;-81
2023/10/08 08:23:23;;;;;;;14.07;2.92;;;;;;;21.77;41.21;99662.59;7611128;32;39255;-82
2023/10/08 08:27:39;;;;;;;9.02;2.30;;;;;;;21.67;41.79;99680.50;7606218;32;39545;-82
2023/10/08 08:31:56;;;;;;;12.00;2.80;;;;;;;21.71;41.75;99670.34;7605795;32;37739;-82
2023/10/08 08:36:13;;;;;;;8.63;2.97;;;;;;;21.57;42.49;99664.34;7606020;32;37884;-81
2023/10/08 08:40:29;;;;;;;11.02;2.60;;;;;;;21.36;43.54;99681.09;7605937;32;39873;-82
2023/10/08 08:44:47;;;;;;;9.25;2.50;;;;;;;21.48;43.44;99699.72;7605860;32;40672;-82
2023/10/08 08:49:07;;;;;;;9.40;2.92;;;;;;;21.36;43.83;99715.16;7605856;32;37989;-83
2023/10/08 08:53:24;;;;;;;17.87;2.87;;;;;;;21.55;43.69;99722.12;7606093;32;36804;-76
2023/10/08 08:57:44;;;;;;;12.93;2.97;;;;;;;21.32;44.01;99744.75;7605938;32;39427;-82
2023/10/08 09:02:01;;;;;;;14.30;2.85;;;;;;;21.47;43.60;99732.22;7616249;32;40710;-82
2023/10/08 09:06:17;;;;;;;10.98;2.45;;;;;;;21.18;44.08;99738.75;7605574;32;37972;-83
2023/10/08 09:10:37;;;;;;;14.75;2.67;;;;;;;21.08;44.78;99747.50;7611635;32;37660;-82
2023/10/08 09:15:00;;;;;;;14.40;3.00;;;;;;;21.57;43.89;99755.88;7617731;32;39544;-82
2023/10/08 09:19:22;;;;;;;15.43;3.25;;;;;;;21.60;43.65;99768.25;7610760;32;40064;-83
2023/10/08 09:23:47;;;;;;;9.75;2.85;;;;;;;21.70;43.37;99779.69;7631539;32;38023;-83
2023/10/08 09:28:07;;;;;;;9.82;2.53;;;;;;;21.57;44.02;99809.38;7630607;32;37589;-82
2023/10/08 09:32:23;;;;;;;5.03;2.55;;;;;;;21.38;44.61;99845.94;7631543;32;40111;-82
2023/10/08 09:36:42;;;;;;;8.00;2.37;;;;;;;21.41;44.93;99857.53;7631250;32;40128;-82
2023/10/08 09:41:00;;;;;;;6.20;2.20;;;;;;;21.56;44.64;99868.00;7628796;32;37731;-82
2023/10/08 09:45:17;;;;;;;7.97;2.60;;;;;;;21.19;45.86;99881.72;7604328;32;37331;-81
2023/10/08 09:49:43;;;;;;;6.00;1.83;;;;;;;21.66;44.79;99873.09;7604961;32;40016;-82
2023/10/08 09:54:10;;;;;;;4.62;1.60;;;;;;;21.39;44.87;99857.88;7625415;32;40559;-84
2023/10/08 09:58:29;;;;;;;5.15;1.27;;;;;;;21.29;44.95;99872.16;7604555;32;38981;-84
2023/10/08 10:02:46;;;;;;;5.30;1.12;;;;;;;21.25;44.69;99888.69;7627908;32;37080;-83
2023/10/08 10:07:14;;;;;;;6.22;0.98;;;;;;;21.29;44.32;99899.91;7604821;32;39461;-83
2023/10/08 10:11:30;;;;;;;8.60;1.40;;;;;;;21.21;44.65;99912.66;7603750;32;39927;-83
2023/10/08 10:15:47;;;;;;;3.17;0.80;;;;;;;21.23;44.82;99915.94;7603944;32;38685;-82
2023/10/08 10:20:06;;;;;;;1.00;0.50;;;;;;;20.57;43.94;99908.28;7602571;32;37780;-82
2023/10/08 10:24:41;;;;;;;0.37;0.37;;;;;;;19.84;45.84;99917.59;7604130;32;39487;-82
2023/10/08 10:29:14;;;;;;;0.35;0.32;;;;;;;19.86;45.54;99926.38;7604124;32;39583;-83
2023/10/08 10:33:32;;;;;;;1.10;0.35;;;;;;;19.50;45.50;99928.38;7603880;32;38697;-82
2023/10/08 10:37:55;;;;;;;4.68;0.50;;;;;;;19.78;45.29;99916.97;7603819;32;37799;-81
2023/10/08 10:42:20;;;;;;;3.58;0.43;;;;;;;19.81;43.62;99908.00;7603733;32;39865;-82
2023/10/08 10:46:41;;;;;;;1.65;0.40;;;;;;;19.82;43.38;99928.19;7603576;32;40823;-82
2023/10/08 10:55:23;;;;;;;;;;;;;;;19.51;42.66;99948.56;7603648;32;37065;-82
2023/10/08 10:59:39;;;;;;;4.72;0.90;;;;;;;19.13;43.53;99971.37;7607435;32;40478;-83
2023/10/08 11:03:59;;;;;;;5.35;2.33;;;;;;;18.87;43.69;99985.97;7607176;32;40016;-83
2023/10/08 11:08:18;;;;;;;5.75;2.30;;;;;;;18.25;45.11;99989.66;7606844;32;37579;-83
2023/10/08 11:12:46;;;;;;;3.10;0.47;;;;;;;18.36;44.62;99992.94;7607071;32;37475;-82
2023/10/08 11:17:31;;;;;;;1.37;0.70;;;;;;;17.97;45.42;100011.94;7606048;32;40093;-83
2023/10/08 11:21:53;;;;;;;3.22;0.47;;;;;;;18.49;44.26;100005.00;7606814;32;40068;-82
2023/10/08 11:26:11;;;;;;;0.40;0.40;;;;;;;18.30;44.41;100011.59;7606922;32;37753;-83
2023/10/08 11:30:31;;;;;;;0.40;0.40;;;;;;;18.33;44.16;100001.84;7607000;32;36763;-82
2023/10/08 11:34:50;;;;;;;3.50;0.50;;;;;;;18.29;42.88;99998.12;7593991;32;39184;-82
2023/10/08 11:39:21;;;;;;;3.72;0.50;;;;;;;18.02;42.24;100017.31;7606761;32;40797;-83
2023/10/08 11:43:39;;;;;;;0.75;0.52;;;;;;;17.89;41.43;100025.66;7606818;32;38044;-83
2023/10/08 11:47:55;;;;;;;1.65;0.80;;;;;;;17.96;40.99;100037.06;7606656;32;37549;-82
2023/10/08 11:52:15;;;;;;;3.70;0.40;;;;;;;17.85;40.69;100039.25;7606599;32;40151;-82
2023/10/08 11:56:33;;;;;;;1.58;0.65;;;;;;;17.50;41.77;100044.50;7606560;32;39757;-82
2023/10/08 12:00:52;;;;;;;3.97;1.83;;;;;;;17.63;40.64;100059.34;7606467;32;37667;-82
2023/10/08 12:05:18;;;;;;;10.75;3.85;;;;;;;17.69;40.44;100062.81;7605995;32;37056;-83
2023/10/08 12:09:37;;;;;;;5.87;2.70;;;;;;;17.59;39.80;100083.16;7606478;32;39435;-82
2023/10/08 12:13:54;;;;;;;7.07;1.80;;;;;;;17.55;40.27;100096.75;7605049;32;39687;-82
2023/10/08 12:18:15;;;;;;;4.75;0.93;;;;;;;17.78;39.70;100100.34;7606358;32;37629;-82
2023/10/08 12:22:31;;;;;;;1.50;1.10;;;;;;;17.31;40.36;100109.97;7606320;32;36813;-82
2023/10/08 12:26:49;;;;;;;4.82;1.50;;;;;;;17.88;39.47;100112.28;7606393;32;39487;-83
2023/10/08 12:31:05;;;;;;;4.20;0.93;;;;;;;17.62;39.69;100123.88;7606309;32;40498;-82
2023/10/08 12:35:24;;;;;;;0.98;0.77;;;;;;;17.80;39.09;100136.69;7606045;32;37968;-82
2023/10/08 12:39:56;;;;;;;1.48;0.75;;;;;;;17.41;39.78;100137.31;7606127;32;39511;-83
2023/10/08 12:44:15;;;;;;;2.40;1.23;;;;;;;17.96;39.24;100150.97;7606197;32;40171;-83
2023/10/08 12:48:32;;;;;;;1.75;0.77;;;;;;;17.93;38.72;100156.28;7605954;32;39888;-81
2023/10/08 12:52:54;;;;;;;1.42;1.02;;;;;;;17.83;39.63;100157.31;7617122;32;37891;-82
2023/10/08 12:57:11;;;;;;;5.23;1.23;;;;;;;17.90;38.84;100151.38;7606065;32;37113;-82
2023/10/08 13:01:28;;;;;;;2.30;0.82;;;;;;;17.77;38.38;100164.09;7605833;32;39410;-82
2023/10/08 13:05:45;;;;;;;0.77;0.70;;;;;;;17.67;38.45;100159.59;7605629;32;41015;-82
2023/10/08 13:10:01;;;;;;;2.72;1.00;;;;;;;17.77;38.63;100164.88;7605485;32;38451;-82
2023/10/08 13:14:18;;;;;;;1.05;0.98;;;;;;;17.70;37.77;100158.19;7605535;32;36900;-82
2023/10/08 13:18:37;;;;;;;2.20;1.20;;;;;;;17.57;38.26;100168.91;7604432;32;40158;-82
2023/10/08 13:22:53;;;;;;;3.85;1.50;;;;;;;17.73;37.35;100174.09;7605463;32;40598;-82
2023/10/08 13:27:10;;;;;;;2.17;1.30;;;;;;;17.85;37.17;100171.63;7605317;32;38554;-83
2023/10/08 13:31:29;;;;;;;2.55;1.17;;;;;;;17.71;37.19;100188.19;7604254;32;36439;-83
2023/10/08 13:35:49;;;;;;;5.72;1.05;;;;;;;18.04;36.90;100201.00;7605211;32;39093;-82
2023/10/08 13:40:32;;;;;;;1.33;1.10;;;;;;;18.25;36.46;100204.91;7604066;32;40044;-81
2023/10/08 13:44:49;;;;;;;1.08;0.98;;;;;;;17.53;37.43;100213.97;7604941;32;37955;-82
2023/10/08 13:49:06;;;;;;;4.80;1.27;;;;;;;17.99;36.10;100211.03;7604863;32;36645;-82
2023/10/08 13:53:22;;;;;;;3.10;1.17;;;;;;;17.92;36.24;100216.16;7604857;32;39895;-82
2023/10/08 13:57:41;;;;;;;2.08;1.40;;;;;;;17.72;36.58;100233.13;7604631;32;39752;-80
2023/10/08 14:01:58;;;;;;;2.95;1.17;;;;;;;17.48;36.87;100228.66;7604438;32;37750;-82
2023/10/08 14:06:16;;;;;;;1.52;1.20;;;;;;;17.50;37.29;100226.41;7604408;32;37303;-81
2023/10/08 14:10:32;;;;;;;1.95;1.10;;;;;;;17.33;36.81;100231.72;7604493;32;38363;-82
2023/10/08 14:14:49;;;;;;;1.75;1.20;;;;;;;17.25;36.89;100228.56;7604118;32;39982;-82
2023/10/08 14:19:05;;;;;;;2.40;1.37;;;;;;;16.97;37.27;100244.25;7604113;32;38134;-82
2023/10/08 14:23:25;;;;;;;4.05;1.60;;;;;;;17.02;37.33;100243.31;7603980;32;37748;-82
2023/10/08 14:27:43;;;;;;;1.77;1.30;;;;;;;17.28;36.71;100229.88;7604024;32;39414;-82
2023/10/08 14:32:00;;;;;;;3.60;1.20;;;;;;;17.01;37.33;100242.53;7607242;32;40095;-81
2023/10/08 14:45:31;;;;;;;1.92;1.37;;;;;;;17.27;35.82;100251.09;7607359;32;39679;-81
2023/10/08 14:49:47;;;;;;;5.30;1.45;;;;;;;17.12;35.99;100254.16;7607288;32;40535;-83
2023/10/08 14:54:06;;;;;;;4.93;1.67;;;;;;;17.11;35.56;100274.56;7606026;32;38799;-82
2023/10/08 14:58:25;;;;;;;3.40;1.42;;;;;;;17.26;34.93;100285.31;7607286;32;37168;-82
2023/10/08 15:02:42;;;;;;;3.05;1.60;;;;;;;17.29;34.82;100281.13;7607144;32;40165;-83
2023/10/08 15:06:59;;;;;;;4.32;2.08;;;;;;;17.13;34.67;100297.13;7607334;32;39909;-83
2023/10/08 15:11:16;;;;;;;3.00;1.30;;;;;;;17.43;33.93;100290.19;7606636;32;38932;-81
2023/10/08 15:15:34;;;;;;;3.37;1.83;;;;;;;17.07;33.76;100301.06;7606598;32;37007;-82
2023/10/08 15:19:51;;;;;;;3.58;1.90;;;;;;;16.76;34.47;100317.28;7606874;32;39394;-82
2023/10/08 15:24:11;;;;;;;3.55;1.60;;;;;;;16.90;34.48;100318.16;7593529;32;40541;-82
2023/10/08 15:28:28;;;;;;;3.45;1.60;;;;;;;17.03;34.04;100327.59;7606806;32;37789;-82
2023/10/08 15:32:45;;;;;;;5.78;1.95;;;;;;;16.93;34.01;100342.34;7606782;32;37203;-82
2023/10/08 15:37:02;;;;;;;6.97;1.65;;;;;;;17.04;33.62;100351.25;7606823;32;39949;-82
2023/10/08 15:41:19;;;;;;;5.57;1.40;;;;;;;16.96;34.04;100358.28;7605961;32;39878;-82
2023/10/08 15:45:36;;;;;;;2.03;1.42;;;;;;;16.99;34.31;100382.47;7605371;32;37916;-82
2023/10/08 15:49:53;;;;;;;9.10;1.90;;;;;;;17.11;34.20;100379.25;7606549;32;37049;-82
2023/10/08 15:54:09;;;;;;;11.45;1.90;;;;;;;16.82;34.11;100379.41;7605349;32;40062;-82
2023/10/08 15:58:26;;;;;;;3.03;1.42;;;;;;;16.24;35.46;100377.75;7606444;32;39760;-82
2023/10/08 16:02:44;;;;;;;6.90;2.47;;;;;;;16.30;35.83;100382.09;7606212;32;37909;-82
2023/10/08 16:07:01;;;;;;;4.10;1.90;;;;;;;15.91;37.38;100399.63;7606496;32;36104;-83
2023/10/08 16:11:19;;;;;;;5.62;2.10;;;;;;;15.61;38.62;100415.31;7606075;32;40265;-82
2023/10/08 16:15:36;;;;;;;7.93;1.90;;;;;;;15.71;39.57;100428.94;7606350;32;39751;-82
2023/10/08 16:19:52;;;;;;;3.85;2.00;;;;;;;15.66;39.22;100428.16;7605062;32;38740;-82
2023/10/08 16:24:08;;;;;;;4.57;1.95;;;;;;;15.53;39.75;100451.66;7626364;32;37082;-81
2023/10/08 16:28:25;;;;;;;6.60;1.90;;;;;;;15.56;39.29;100453.84;7630238;32;39551;-83
2023/10/08 16:32:42;;;;;;;5.20;2.00;;;;;;;15.42;39.70;100461.94;7606212;32;39892;-80
2023/10/08 16:36:59;;;;;;;5.87;2.15;;;;;;;15.00;40.54;100475.16;7606151;32;38855;-81
2023/10/08 16:41:15;;;;;;;4.78;1.95;;;;;;;14.75;41.08;100470.63;7620714;32;36742;-80
2023/10/08 16:45:32;;;;;;;4.87;2.05;;;;;;;14.72;40.65;100459.41;7614983;32;39196;-80
2023/10/08 16:49:48;;;;;;;6.75;2.05;;;;;;;14.50;40.82;100473.47;7618759;32;39952;-82
2023/10/08 16:54:13;;;;;;;6.47;2.67;;;;;;;14.31;41.12;100476.81;7631670;32;38046;-81
2023/10/08 16:58:30;;;;;;;4.90;1.95;;;;;;;14.26;41.10;100499.62;7619282;32;37893;-82
2023/10/08 17:02:46;;;;;;;6.03;2.78;;;;;;;14.33;41.13;100510.31;7605718;32;40312;-83
2023/10/08 17:07:04;;;;;;;5.55;2.60;;;;;;;14.52;40.53;100532.44;7605680;32;40782;-80
2023/10/08 17:11:20;;;;;;;4.35;2.25;;;;;;;14.49;40.78;100543.97;7605341;32;38749;-81
2023/10/08 17:15:36;;;;;;;4.55;2.10;;;;;;;14.47;41.00;100543.44;7613197;32;37022;-80
2023/10/08 17:19:53;;;;;;;5.47;2.35;;;;;;;14.10;41.69;100541.87;7615538;32;40151;-81
2023/10/08 17:24:09;;;;;;;6.03;1.80;;;;;;;14.27;40.87;100550.62;7621806;32;40046;-81
2023/10/08 17:28:26;;;;;;;4.18;1.98;;;;;;;14.30;41.23;100551.16;7615180;32;37983;-81
2023/10/08 17:32:43;;;;;;;3.40;2.00;;;;;;;14.02;41.41;100545.16;7607336;32;37564;-80
2023/10/08 17:37:00;;;;;;;5.82;2.10;;;;;;;13.96;41.27;100540.81;7605050;32;39291;-80
2023/10/08 17:41:17;;;;;;;4.18;1.98;;;;;;;13.59;42.08;100552.88;7604984;32;40445;-80
2023/10/08 17:45:35;;;;;;;4.82;2.03;;;;;;;13.45;41.96;100550.69;7604841;32;37625;-81
2023/10/08 17:49:51;;;;;;;4.75;2.00;;;;;;;13.39;41.88;100570.94;7604873;32;36815;-80
2023/10/08 17:54:10;;;;;;;3.80;1.75;;;;;;;13.07;42.46;100587.53;7604833;32;39252;-81
2023/10/08 17:58:28;;;;;;;7.28;2.20;;;;;;;13.02;42.58;100585.59;7615527;32;38968;-80
2023/10/08 18:02:45;;;;;;;5.10;2.17;;;;;;;13.27;41.98;100590.31;7604341;32;38176;-81
2023/10/08 18:07:01;;;;;;;4.32;2.25;;;;;;;13.06;42.26;100592.19;7607569;32;37667;-80
2023/10/08 18:11:19;;;;;;;4.75;2.20;;;;;;;13.06;42.24;100597.66;7607592;32;40086;-81
2023/10/08 18:15:38;;;;;;;5.65;2.35;;;;;;;12.95;42.75;100585.00;7629829;32;40112;-81
2023/10/08 18:19:56;;;;;;;6.25;2.53;;;;;;;12.95;42.61;100601.44;7633636;32;37939;-81
2023/10/08 18:24:16;;;;;;;7.12;2.40;;;;;;;12.88;42.25;100598.97;7633714;32;36353;-82
2023/10/08 18:28:34;;;;;;;5.53;2.50;;;;;;;13.02;41.71;100604.78;7633676;32;40073;-81
2023/10/08 18:32:51;;;;;;;3.00;1.80;;;;;;;12.98;41.59;100617.31;7632388;32;39238;-81
2023/10/08 18:37:09;;;;;;;3.53;1.80;;;;;;;12.87;42.10;100615.66;7633441;32;38596;-80
2023/10/08 18:41:25;;;;;;;2.33;1.73;;;;;;;12.70;41.84;100624.88;7633276;32;37035;-80
2023/10/08 18:45:43;;;;;;;5.00;1.77;;;;;;;12.65;42.33;100627.56;7633608;32;39266;-80
2023/10/08 18:50:00;;;;;;;3.67;1.90;;;;;;;12.54;42.14;100629.44;7631860;32;40634;-81
2023/10/08 18:54:32;;;;;;;2.80;1.77;;;;;;;12.27;42.59;100625.97;7607523;32;38238;-80
2023/10/08 18:58:49;;;;;;;4.53;1.90;;;;;;;12.20;42.23;100618.00;7615332;32;37183;-79
2023/10/08 19:03:08;;;;;;;2.58;1.70;;;;;;;11.88;42.44;100628.91;7607140;32;40102;-79
2023/10/08 19:07:25;;;;;;;4.45;2.12;;;;;;;11.50;43.32;100634.28;7614825;32;38501;-81
2023/10/08 19:11:41;;;;;;;3.25;1.83;;;;;;;11.80;42.41;100627.47;7621722;32;37738;-79
2023/10/08 19:15:58;;;;;;;2.62;1.83;;;;;;;11.62;42.75;100637.69;7618476;32;36819;-81
2023/10/08 19:20:16;;;;;;;3.90;2.37;;;;;;;11.36;42.93;100641.25;7618073;32;40017;-80
2023/10/08 19:24:33;;;;;;;3.28;1.60;;;;;;;11.58;43.06;100644.75;7614325;32;39088;-80
2023/10/08 19:28:49;;;;;;;4.00;2.15;;;;;;;11.58;43.46;100663.87;7632564;32;37729;-80
2023/10/08 19:33:07;;;;;;;5.12;2.22;;;;;;;11.73;43.17;100670.56;7618287;32;37043;-80
2023/10/08 19:37:24;;;;;;;6.05;2.37;;;;;;;11.89;42.19;100669.62;7624137;32;37958;-80
2023/10/08 19:41:40;;;;;;;4.87;2.53;;;;;;;11.76;43.19;100672.78;7630848;32;39832;-81
2023/10/08 19:45:57;;;;;;;8.93;2.03;;;;;;;10.97;46.70;100694.00;7621330;32;38696;-80
2023/10/08 19:50:19;;;;;;;5.45;2.00;;;;;;;11.05;46.36;100688.06;7618239;32;37004;-79
2023/10/08 19:54:36;;;;;;;5.87;2.47;;;;;;;11.14;45.12;100695.84;7611249;32;40024;-80
2023/10/08 19:58:54;;;;;;;5.28;2.55;;;;;;;11.63;43.70;100698.59;7607107;32;39595;-80
2023/10/08 20:03:12;;;;;;;3.03;2.17;;;;;;;11.28;43.43;100694.37;7627275;32;36952;-81
2023/10/08 20:07:28;;;;;;;5.07;2.47;;;;;;;11.11;44.03;100707.25;7619764;32;37001;-80
2023/10/08 20:11:44;;;;;;;4.55;2.15;;;;;;;11.38;43.85;100712.78;7612034;32;39289;-80
2023/10/08 20:16:05;;;;;;;5.55;2.58;;;;;;;11.47;42.61;100705.81;7618050;32;40965;-80
2023/10/08 20:20:24;;;;;;;2.95;1.92;;;;;;;11.62;42.95;100696.94;7614622;32;37902;-80
2023/10/08 20:24:40;;;;;;;4.68;2.22;;;;;;;11.91;42.60;100716.69;7614131;32;36706;-80
2023/10/08 20:28:57;;;;;;;5.03;2.42;;;;;;;11.85;42.62;100712.22;7630666;32;39419;-80
2023/10/08 20:33:14;;;;;;;5.03;2.00;;;;;;;11.88;43.80;100739.00;7631351;32;39749;-80
2023/10/08 20:37:30;;;;;;;6.90;2.10;;;;;;;11.08;45.92;100744.88;7630834;32;38743;-80
2023/10/08 20:41:49;;;;;;;3.55;1.90;;;;;;;11.31;44.19;100734.81;7630078;32;37760;-81
2023/10/08 20:46:06;;;;;;;3.95;2.20;;;;;;;11.51;45.17;100750.62;7631159;32;39311;-80
2023/10/08 20:50:25;;;;;;;5.95;2.10;;;;;;;11.38;44.33;100761.94;7613124;32;40016;-80
2023/10/08 20:54:47;;;;;;;3.50;1.83;;;;;;;11.14;45.36;100769.50;7615353;32;37625;-80
2023/10/08 20:59:04;;;;;;;3.35;2.10;;;;;;;11.06;43.54;100777.06;7604986;32;36968;-80
2023/10/08 21:03:21;;;;;;;3.83;2.03;;;;;;;11.19;41.54;100764.12;7605310;32;40115;-80